Terminal Aerodrome Forecast
Issued by NWS

Home | Current Version | Previous Version | Text Only | Print | Product List | Glossary On
Versions: 1 2 3 4 5 6 7 8 9 10 11 12 13 14 15 16
000
FTUS42 KTBW 231810 AAA
TAFRSW
TAF AMD
KRSW 231810Z 2318/2418 VRB06KT P6SM SCT020 BKN050 BKN100
     FM232000 24006KT P6SM VCTS SCT025CB BKN100
     FM240000 28005KT P6SM SCT030 BKN100
     FM240700 VRB03KT P6SM SCT020 BKN100
     FM241400 27008KT P6SM SCT025 BKN110
     FM241700 27012KT P6SM SCT025 BKN110=

USA.gov is the U.S. government's official web portal to all federal, state and local government web resources and services.